Imogene, South Dakota
Current Conditions -  °F | °C
As of 8:53 PM on Monday 22 Dec 2014 (Local Time) from KHEI Reporting Station
Light Snow Light Snow  
Wind Chill:   Ceiling: 1600
Heat Index: 24°   Visibility: 2mi
Dew Point: 20°   Wind: 22mph
Humidity: 84%   Direction: 320°NW
Pressure: 29.78"   Gusts: 29mph
Location:  45.6029°N, 102.827°W
Report Text: KHEI 230353Z AUTO 32019G25KT 2SM -SN BR OVC016 M04/M07 A2978 RMK AO2 SLP113 P0000 T10441067
Loading
Personal Weather Stations






























Interactive Weather Map New forecast layout! Learn more

10-Day Weather Forecast

Advertisements
Track Severe Weather on mobile